Time;durP1;ratioP1;P1;durP2;ratioP2;P2;SDS_P1;SDS_P2;PMS_P1;PMS_P2;Temp;Humidity;BMP_temperature;BMP_pressure;BME280_temperature;BME280_humidity;BME280_pressure;Samples;Min_cycle;Max_cycle;Signal;HPM_P1;HPM_P2
2024/01/28 00:00:52;;;;;;;5.32;2.97;;;6.60;99.40;;;;;;5046157;28;20203;-44
2024/01/28 00:03:20;;;;;;;2.58;2.05;;;6.60;99.40;;;;;;5048372;28;20274;-45
2024/01/28 00:05:51;;;;;;;5.57;2.45;;;6.60;99.70;;;;;;5048370;28;20200;-44
2024/01/28 00:08:19;;;;;;;4.05;2.30;;;6.60;99.40;;;;;;5048560;28;20223;-46
2024/01/28 00:10:49;;;;;;;8.40;2.53;;;6.60;99.40;;;;;;5045999;28;20197;-44
2024/01/28 00:13:18;;;;;;;4.85;2.70;;;6.60;99.30;;;;;;5048212;28;20251;-45
2024/01/28 00:15:48;;;;;;;5.18;2.85;;;6.60;99.30;;;;;;5045852;28;20558;-45
2024/01/28 00:18:17;;;;;;;3.80;2.65;;;6.60;99.10;;;;;;5048101;28;20219;-45
2024/01/28 00:20:46;;;;;;;4.10;2.28;;;6.60;99.40;;;;;;5045811;28;20203;-46
2024/01/28 00:23:14;;;;;;;5.60;2.60;;;6.60;99.20;;;;;;5045715;28;20220;-45
2024/01/28 00:25:42;;;;;;;7.68;3.50;;;6.60;99.10;;;;;;5046244;28;20194;-46
2024/01/28 00:28:11;;;;;;;3.50;2.40;;;6.60;99.60;;;;;;5043224;28;20632;-45
2024/01/28 00:30:39;;;;;;;3.70;2.53;;;6.60;99.10;;;;;;5043044;28;20201;-46
2024/01/28 00:33:08;;;;;;;4.40;2.80;;;6.60;99.20;;;;;;5045840;28;20300;-45
2024/01/28 00:35:37;;;;;;;3.88;2.78;;;6.60;99.10;;;;;;5047085;28;20287;-45
2024/01/28 00:38:05;;;;;;;3.97;2.63;;;6.60;99.30;;;;;;5047723;28;20212;-45
2024/01/28 00:40:34;;;;;;;3.60;2.25;;;6.60;99.20;;;;;;5046916;28;20680;-45
2024/01/28 00:43:04;;;;;;;5.18;2.55;;;6.60;99.10;;;;;;5051764;28;20227;-45
2024/01/28 00:45:34;;;;;;;3.35;2.30;;;6.60;99.20;;;;;;5048980;28;20280;-45
2024/01/28 00:48:02;;;;;;;3.88;2.20;;;6.60;99.40;;;;;;5046234;28;20260;-45
2024/01/28 00:50:30;;;;;;;6.65;2.80;;;6.60;99.20;;;;;;5051372;28;20188;-46
2024/01/28 00:53:00;;;;;;;3.97;2.38;;;6.60;99.30;;;;;;5051766;28;20742;-45
2024/01/28 00:55:28;;;;;;;3.50;2.40;;;6.60;99.20;;;;;;5051415;28;20197;-46
2024/01/28 00:57:56;;;;;;;5.50;2.38;;;6.50;99.40;;;;;;5050415;28;20635;-45
2024/01/28 01:00:25;;;;;;;5.00;2.70;;;6.50;99.30;;;;;;5049629;28;20200;-45
2024/01/28 01:02:54;;;;;;;3.58;2.15;;;6.50;99.10;;;;;;5051555;28;20224;-45
2024/01/28 01:05:22;;;;;;;6.97;2.22;;;6.50;99.10;;;;;;5051652;28;20570;-45
2024/01/28 01:07:51;;;;;;;4.57;2.35;;;6.50;99.00;;;;;;5051962;28;20216;-45
2024/01/28 01:10:20;;;;;;;4.15;2.67;;;6.50;99.00;;;;;;5047845;28;20666;-45
2024/01/28 01:12:48;;;;;;;3.22;2.20;;;6.50;99.10;;;;;;5051445;28;20224;-45
2024/01/28 01:15:16;;;;;;;3.85;2.58;;;6.50;99.20;;;;;;5050374;28;20200;-45
2024/01/28 01:17:44;;;;;;;7.53;2.25;;;6.50;99.20;;;;;;5050046;28;20303;-44
2024/01/28 01:20:14;;;;;;;3.97;2.42;;;6.50;99.20;;;;;;5051035;28;20201;-45
2024/01/28 01:22:42;;;;;;;8.50;2.25;;;6.50;99.40;;;;;;5050850;28;20522;-45
2024/01/28 01:25:10;;;;;;;3.47;2.22;;;6.50;99.30;;;;;;5049170;28;20216;-44
2024/01/28 01:27:38;;;;;;;3.47;2.47;;;6.50;99.30;;;;;;5049168;28;20732;-45
2024/01/28 01:30:08;;;;;;;3.10;1.70;;;6.50;99.20;;;;;;5051823;28;20188;-45
2024/01/28 01:32:40;;;;;;;5.15;2.53;;;6.50;99.20;;;;;;5046819;28;20750;-45
2024/01/28 01:35:09;;;;;;;2.90;2.17;;;6.50;99.30;;;;;;5051656;28;20196;-45
2024/01/28 01:37:38;;;;;;;3.58;2.00;;;6.50;99.40;;;;;;5049043;28;20220;-45
2024/01/28 01:40:08;;;;;;;6.78;2.83;;;6.50;99.10;;;;;;5051400;28;20216;-45
2024/01/28 01:42:36;;;;;;;3.17;2.30;;;6.50;99.30;;;;;;5045030;28;20231;-44
2024/01/28 01:45:06;;;;;;;2.75;1.90;;;6.50;99.30;;;;;;5050586;28;20219;-43
2024/01/28 01:47:34;;;;;;;3.67;2.47;;;6.50;99.20;;;;;;5048344;28;20220;-45
2024/01/28 01:50:03;;;;;;;3.75;2.78;;;6.50;99.10;;;;;;5051590;28;20540;-46
2024/01/28 01:52:32;;;;;;;3.28;2.10;;;6.50;99.20;;;;;;5049868;28;20594;-44
2024/01/28 01:55:03;;;;;;;3.00;2.30;;;6.50;99.20;;;;;;5030984;28;20197;-45
2024/01/28 01:57:31;;;;;;;3.65;2.00;;;6.50;99.10;;;;;;5048405;28;20251;-45
2024/01/28 01:59:59;;;;;;;3.03;2.35;;;6.40;99.20;;;;;;5032983;28;20213;-45
2024/01/28 02:02:28;;;;;;;3.45;2.25;;;6.40;99.30;;;;;;5047191;28;20216;-44
2024/01/28 02:04:56;;;;;;;3.60;2.03;;;6.40;99.40;;;;;;5050880;28;20745;-45
2024/01/28 02:07:26;;;;;;;3.65;2.05;;;6.40;99.60;;;;;;5050710;28;20189;-45
2024/01/28 02:09:54;;;;;;;2.88;2.08;;;6.50;99.60;;;;;;5044417;28;20617;-45
2024/01/28 02:12:23;;;;;;;5.22;3.80;;;6.40;99.60;;;;;;5046704;28;20247;-45
2024/01/28 02:15:02;;;;;;;4.75;2.03;;;6.40;99.30;;;;;;5032950;28;20208;-45
2024/01/28 02:17:30;;;;;;;3.55;2.15;;;6.40;99.40;;;;;;5046944;28;20292;-45
2024/01/28 02:19:59;;;;;;;5.57;2.15;;;6.40;99.20;;;;;;5049769;28;20196;-45
2024/01/28 02:22:28;;;;;;;3.22;2.13;;;6.40;99.10;;;;;;5048385;28;20216;-45
2024/01/28 02:24:58;;;;;;;4.85;2.38;;;6.40;99.20;;;;;;5044470;28;20229;-44
2024/01/28 02:27:26;;;;;;;3.20;2.10;;;6.40;99.10;;;;;;5047015;28;20646;-45
2024/01/28 02:29:54;;;;;;;3.65;2.33;;;6.40;99.20;;;;;;5049491;28;20192;-45
2024/01/28 02:32:22;;;;;;;4.15;2.85;;;6.40;99.10;;;;;;5045498;28;20236;-45
2024/01/28 02:34:51;;;;;;;4.38;2.50;;;6.40;99.00;;;;;;5047304;28;20204;-44
2024/01/28 02:37:19;;;;;;;4.25;2.60;;;6.40;99.00;;;;;;5048024;28;20203;-44
2024/01/28 02:39:47;;;;;;;4.72;1.98;;;6.40;99.30;;;;;;5050471;28;20551;-46
2024/01/28 02:42:17;;;;;;;4.60;2.10;;;6.30;99.10;;;;;;5049377;28;20219;-46
2024/01/28 02:44:45;;;;;;;3.63;2.10;;;6.40;99.20;;;;;;5049849;28;20290;-45
2024/01/28 02:47:13;;;;;;;3.58;1.92;;;6.30;99.00;;;;;;5047496;28;20613;-45
2024/01/28 02:49:42;;;;;;;4.13;2.45;;;6.30;99.00;;;;;;5050152;28;20762;-45
2024/01/28 02:52:10;;;;;;;2.95;1.70;;;6.30;99.20;;;;;;5051015;28;20260;-46
2024/01/28 02:54:40;;;;;;;4.93;2.10;;;6.30;99.20;;;;;;5045558;28;20228;-45
2024/01/28 02:57:09;;;;;;;3.63;2.38;;;6.30;99.00;;;;;;5051303;28;20193;-45
2024/01/28 02:59:39;;;;;;;4.28;2.30;;;6.30;99.40;;;;;;5048118;28;20216;-45
2024/01/28 03:02:07;;;;;;;2.45;1.70;;;6.30;99.40;;;;;;5047807;28;20650;-45
2024/01/28 03:04:37;;;;;;;2.65;1.85;;;6.30;99.20;;;;;;5049378;28;20221;-45
2024/01/28 03:07:07;;;;;;;4.40;2.35;;;6.30;99.30;;;;;;5050525;28;20723;-45
2024/01/28 03:09:36;;;;;;;4.57;2.50;;;6.30;99.00;;;;;;5048059;28;20286;-45
2024/01/28 03:12:06;;;;;;;3.25;1.85;;;6.30;98.80;;;;;;5050583;28;20223;-45
2024/01/28 03:14:34;;;;;;;3.15;2.20;;;6.30;98.80;;;;;;5049502;28;20216;-45
2024/01/28 03:17:04;;;;;;;3.33;2.38;;;6.30;99.00;;;;;;5048328;28;20279;-45
2024/01/28 03:19:32;;;;;;;3.80;2.03;;;6.30;99.00;;;;;;5048391;28;20526;-45
2024/01/28 03:22:00;;;;;;;2.17;1.70;;;6.30;98.90;;;;;;5049255;28;20223;-45
2024/01/28 03:24:29;;;;;;;2.80;1.80;;;6.30;98.90;;;;;;5045824;28;20221;-46
2024/01/28 03:26:57;;;;;;;4.07;2.10;;;6.30;99.00;;;;;;5049637;28;20280;-44
2024/01/28 03:29:25;;;;;;;4.78;2.10;;;6.30;98.90;;;;;;5049087;28;20228;-45
2024/01/28 03:31:53;;;;;;;4.45;2.00;;;6.30;99.20;;;;;;5045898;28;20228;-45
2024/01/28 03:34:23;;;;;;;4.30;2.10;;;6.30;99.00;;;;;;5045044;28;20285;-44
2024/01/28 03:36:51;;;;;;;3.60;2.42;;;6.30;99.10;;;;;;5049367;28;20192;-45
2024/01/28 03:39:19;;;;;;;3.03;1.73;;;6.30;99.20;;;;;;5048636;28;20258;-45
2024/01/28 03:41:47;;;;;;;6.65;2.33;;;6.30;99.40;;;;;;5042044;28;20235;-44
2024/01/28 03:44:22;;;;;;;3.75;1.70;;;6.30;99.00;;;;;;5048251;28;20242;-45
2024/01/28 03:46:50;;;;;;;4.18;2.45;;;6.20;99.00;;;;;;5044852;28;20279;-45
2024/01/28 03:49:18;;;;;;;3.60;2.30;;;6.20;98.90;;;;;;5048218;28;20220;-45
2024/01/28 03:51:48;;;;;;;3.53;1.95;;;6.20;98.80;;;;;;5046172;28;20748;-45
2024/01/28 03:54:16;;;;;;;6.32;2.17;;;6.20;99.20;;;;;;5042884;28;20222;-46
2024/01/28 03:56:44;;;;;;;3.25;1.90;;;6.20;99.40;;;;;;5048957;28;20271;-45
2024/01/28 03:59:13;;;;;;;3.47;1.90;;;6.20;99.20;;;;;;5048100;28;20220;-45
2024/01/28 04:01:42;;;;;;;2.10;1.50;;;6.20;99.30;;;;;;5042682;28;20205;-44
2024/01/28 04:04:11;;;;;;;2.90;1.98;;;6.20;99.70;;;;;;5047287;28;20294;-46
2024/01/28 04:06:43;;;;;;;3.75;1.60;;;6.20;99.30;;;;;;5052960;28;20203;-45
2024/01/28 04:09:13;;;;;;;2.92;1.73;;;6.20;99.40;;;;;;5046507;28;20236;-45
2024/01/28 04:11:41;;;;;;;4.63;1.67;;;6.20;99.50;;;;;;5046556;28;20189;-46
2024/01/28 04:14:09;;;;;;;2.85;1.90;;;6.20;99.40;;;;;;5048240;28;20216;-45
2024/01/28 04:16:38;;;;;;;2.72;2.05;;;6.20;99.20;;;;;;5044193;28;20747;-45
2024/01/28 04:19:06;;;;;;;4.40;2.60;;;6.20;99.60;;;;;;5047642;28;20613;-45
2024/01/28 04:21:36;;;;;;;2.78;1.85;;;6.20;99.70;;;;;;5047990;28;20621;-45
2024/01/28 04:24:06;;;;;;;7.25;2.65;;;6.20;99.50;;;;;;5034104;28;20274;-45
2024/01/28 04:26:35;;;;;;;2.70;1.50;;;6.20;99.60;;;;;;5045332;28;20251;-45
2024/01/28 04:29:03;;;;;;;2.40;1.60;;;6.20;99.50;;;;;;5046088;28;20216;-45
2024/01/28 04:31:31;;;;;;;2.40;1.70;;;6.20;99.50;;;;;;5046651;28;20193;-45
2024/01/28 04:34:00;;;;;;;4.47;1.85;;;6.20;99.70;;;;;;5047857;28;20212;-45
2024/01/28 04:36:30;;;;;;;3.17;1.80;;;6.20;99.50;;;;;;5048176;28;20193;-46
2024/01/28 04:38:59;;;;;;;2.80;2.00;;;6.20;99.40;;;;;;5047193;28;20220;-45
2024/01/28 04:41:27;;;;;;;2.60;1.75;;;6.20;99.30;;;;;;5045265;28;20189;-44
2024/01/28 04:43:56;;;;;;;5.68;2.10;;;6.10;99.30;;;;;;5042116;28;20791;-46
2024/01/28 04:46:24;;;;;;;3.95;2.78;;;6.10;99.10;;;;;;5043824;28;20607;-45
2024/01/28 04:48:52;;;;;;;2.55;1.80;;;6.10;99.10;;;;;;5047621;28;20209;-45
2024/01/28 04:51:20;;;;;;;3.45;2.03;;;6.10;99.30;;;;;;5047930;28;20212;-44
2024/01/28 04:53:49;;;;;;;2.90;1.80;;;6.10;99.20;;;;;;5047597;28;20701;-45
2024/01/28 04:56:17;;;;;;;2.90;1.35;;;6.10;99.40;;;;;;5043063;28;20193;-44
2024/01/28 04:58:44;;;;;;;4.28;2.10;;;6.10;99.50;;;;;;5047782;28;20221;-45
2024/01/28 05:01:14;;;;;;;2.80;1.70;;;6.10;99.60;;;;;;5041691;28;20246;-45
2024/01/28 05:03:42;;;;;;;3.38;1.70;;;6.10;99.80;;;;;;5047612;28;20213;-45
2024/01/28 05:06:12;;;;;;;2.40;1.73;;;6.10;99.90;;;;;;5047993;28;20209;-45
2024/01/28 05:08:40;;;;;;;4.40;2.00;;;6.10;99.70;;;;;;5045981;28;20311;-45
2024/01/28 05:11:08;;;;;;;3.45;1.60;;;6.10;99.80;;;;;;5045601;28;20799;-45
2024/01/28 05:13:36;;;;;;;3.70;1.63;;;6.10;99.70;;;;;;5046665;28;20242;-45
2024/01/28 05:16:05;;;;;;;4.30;1.55;;;6.10;99.70;;;;;;5044513;28;20220;-45
2024/01/28 05:18:35;;;;;;;2.72;1.65;;;6.10;99.60;;;;;;5046721;28;20462;-45
2024/01/28 05:21:03;;;;;;;2.42;2.20;;;6.10;99.80;;;;;;5046662;28;20655;-45
2024/01/28 05:23:31;;;;;;;2.70;1.50;;;6.10;99.60;;;;;;5044905;28;20212;-45
2024/01/28 05:26:00;;;;;;;2.90;2.10;;;6.10;99.80;;;;;;5046392;28;20552;-45
2024/01/28 05:28:30;;;;;;;2.55;1.52;;;6.10;99.70;;;;;;5046968;28;20215;-45
2024/01/28 05:30:58;;;;;;;3.25;2.15;;;6.00;99.60;;;;;;5041047;28;20193;-44
2024/01/28 05:33:26;;;;;;;2.58;1.30;;;6.10;99.70;;;;;;5048551;28;20714;-44
2024/01/28 05:35:57;;;;;;;3.10;1.70;;;6.00;99.40;;;;;;5051154;28;20199;-45
2024/01/28 05:38:26;;;;;;;3.70;1.75;;;6.00;99.50;;;;;;5051271;28;20216;-45
2024/01/28 05:40:54;;;;;;;3.45;1.80;;;6.10;99.60;;;;;;5044883;28;20689;-45
2024/01/28 05:43:22;;;;;;;3.10;1.83;;;6.00;99.50;;;;;;5050800;28;20205;-45
2024/01/28 05:45:50;;;;;;;2.35;1.60;;;6.00;99.60;;;;;;5045800;28;20250;-44
2024/01/28 05:48:18;;;;;;;4.25;2.13;;;6.00;99.30;;;;;;5051056;28;20332;-44
2024/01/28 05:50:46;;;;;;;3.55;2.05;;;6.00;99.20;;;;;;5051192;28;20200;-45
2024/01/28 05:53:16;;;;;;;3.28;1.75;;;6.00;99.10;;;;;;5050753;28;20274;-45
2024/01/28 05:55:45;;;;;;;3.30;1.70;;;6.00;99.20;;;;;;5048696;28;20198;-44
2024/01/28 05:58:14;;;;;;;3.22;1.85;;;6.00;99.20;;;;;;5050047;28;20216;-46
2024/01/28 06:00:42;;;;;;;2.78;1.95;;;6.00;99.00;;;;;;5048697;28;20208;-45
2024/01/28 06:03:11;;;;;;;5.30;2.05;;;5.90;99.10;;;;;;5050690;28;20224;-44
2024/01/28 06:05:40;;;;;;;4.00;1.80;;;6.00;99.20;;;;;;5050667;28;20224;-45
2024/01/28 06:08:09;;;;;;;1.92;1.30;;;5.90;99.20;;;;;;5048363;28;20240;-45
2024/01/28 06:10:38;;;;;;;3.00;2.00;;;5.90;99.40;;;;;;5050646;28;20204;-45
2024/01/28 06:13:06;;;;;;;2.85;1.75;;;5.90;99.20;;;;;;5050048;28;20213;-45
2024/01/28 06:15:35;;;;;;;3.45;1.80;;;5.90;99.30;;;;;;5048646;28;20192;-45
2024/01/28 06:18:03;;;;;;;6.22;2.20;;;5.90;99.40;;;;;;5050961;28;20243;-45
2024/01/28 06:20:35;;;;;;;3.67;2.30;;;5.90;99.40;;;;;;5050545;28;20680;-45
2024/01/28 06:23:03;;;;;;;2.05;1.60;;;5.90;99.50;;;;;;5049367;28;20729;-46
2024/01/28 06:25:31;;;;;;;2.10;1.67;;;5.90;99.40;;;;;;5044356;28;20546;-45
2024/01/28 06:28:02;;;;;;;4.45;1.80;;;5.90;99.70;;;;;;5044598;28;20307;-45
2024/01/28 06:30:32;;;;;;;3.25;1.95;;;5.90;99.70;;;;;;5047284;28;20201;-45
2024/01/28 06:33:00;;;;;;;3.95;1.70;;;5.90;99.30;;;;;;5041569;28;20243;-45
2024/01/28 06:35:29;;;;;;;2.80;1.77;;;5.90;99.30;;;;;;5049473;28;20208;-45
2024/01/28 06:37:57;;;;;;;3.22;1.73;;;5.90;99.60;;;;;;5044747;28;20590;-46
2024/01/28 06:40:25;;;;;;;3.78;2.00;;;5.90;99.50;;;;;;5049704;28;20197;-45
2024/01/28 06:42:54;;;;;;;2.38;1.90;;;5.90;99.30;;;;;;5046659;28;20307;-45
2024/01/28 06:45:23;;;;;;;2.15;1.90;;;5.90;99.30;;;;;;5047897;28;20700;-45
2024/01/28 06:47:52;;;;;;;2.67;1.73;;;5.90;99.40;;;;;;5048077;28;20278;-46
2024/01/28 06:50:20;;;;;;;2.65;1.65;;;5.90;99.40;;;;;;5050028;28;20193;-45
2024/01/28 06:52:48;;;;;;;2.65;1.88;;;5.90;99.40;;;;;;5049050;28;20636;-45
2024/01/28 06:55:17;;;;;;;3.78;2.08;;;5.90;99.40;;;;;;5045605;28;20193;-44
2024/01/28 06:57:47;;;;;;;3.60;2.00;;;5.90;99.30;;;;;;5049198;28;20224;-45
2024/01/28 07:00:16;;;;;;;2.20;1.65;;;5.80;99.30;;;;;;5048454;28;20661;-45
2024/01/28 07:02:47;;;;;;;2.17;1.67;;;5.80;99.30;;;;;;5048689;28;20232;-46
2024/01/28 07:05:16;;;;;;;6.47;2.35;;;5.80;99.20;;;;;;5049879;28;20231;-45
2024/01/28 07:07:44;;;;;;;4.18;1.88;;;5.80;99.20;;;;;;5047614;28;20251;-44
2024/01/28 07:10:12;;;;;;;2.25;1.70;;;5.80;99.30;;;;;;5049664;28;20214;-44
2024/01/28 07:12:41;;;;;;;2.83;2.10;;;5.80;99.20;;;;;;5046620;28;20737;-45
2024/01/28 07:15:10;;;;;;;4.75;1.50;;;5.80;99.60;;;;;;5048920;28;20736;-44
2024/01/28 07:17:38;;;;;;;4.97;1.80;;;5.80;99.50;;;;;;5046303;28;20279;-45
2024/01/28 07:20:09;;;;;;;3.00;1.70;;;5.80;99.40;;;;;;5050138;28;20188;-45
2024/01/28 07:22:38;;;;;;;3.45;1.65;;;5.80;99.30;;;;;;5045545;28;20270;-45
2024/01/28 07:25:07;;;;;;;2.63;1.75;;;5.80;99.20;;;;;;5047377;28;20195;-45
2024/01/28 07:27:35;;;;;;;4.47;1.90;;;5.80;99.30;;;;;;5035795;28;20289;-44
2024/01/28 07:30:03;;;;;;;2.08;1.48;;;5.80;99.30;;;;;;5047110;28;20204;-44
2024/01/28 07:32:32;;;;;;;4.55;1.58;;;5.80;99.30;;;;;;5046347;28;20227;-44
2024/01/28 07:35:00;;;;;;;3.63;1.50;;;5.80;99.30;;;;;;5043492;28;20271;-44
2024/01/28 07:37:30;;;;;;;3.97;2.08;;;5.80;99.30;;;;;;5048843;28;20641;-46
2024/01/28 07:39:58;;;;;;;3.40;2.10;;;5.80;99.30;;;;;;5047579;28;20238;-45
2024/01/28 07:42:26;;;;;;;3.03;1.85;;;5.80;99.20;;;;;;5048807;28;20214;-45
2024/01/28 07:44:54;;;;;;;3.40;1.60;;;5.80;99.20;;;;;;5048954;28;20185;-45
2024/01/28 07:47:23;;;;;;;3.55;1.83;;;5.80;99.10;;;;;;5046822;28;20224;-45
2024/01/28 07:49:52;;;;;;;2.63;1.98;;;5.70;99.00;;;;;;5049182;28;20271;-44
2024/01/28 07:52:20;;;;;;;2.85;1.88;;;5.70;99.10;;;;;;5048767;28;20535;-45
2024/01/28 07:54:49;;;;;;;3.97;1.80;;;5.70;99.10;;;;;;5046153;28;20212;-44
2024/01/28 07:57:18;;;;;;;2.90;1.80;;;5.70;99.10;;;;;;5048962;28;20290;-44
2024/01/28 07:59:46;;;;;;;2.47;1.92;;;5.70;99.00;;;;;;5048678;28;20231;-45
2024/01/28 08:02:14;;;;;;;2.83;1.80;;;5.70;99.10;;;;;;5044953;28;20235;-44
2024/01/28 08:04:45;;;;;;;5.30;2.25;;;5.70;99.10;;;;;;5047475;28;20235;-44
2024/01/28 08:07:13;;;;;;;2.47;1.80;;;5.70;99.20;;;;;;5048670;28;20586;-45
2024/01/28 08:09:42;;;;;;;4.47;2.17;;;5.70;99.20;;;;;;5046032;28;20231;-44
2024/01/28 08:12:11;;;;;;;3.63;1.85;;;5.70;99.30;;;;;;5043969;28;20212;-44
2024/01/28 08:14:39;;;;;;;3.15;1.40;;;5.70;99.00;;;;;;5045162;28;20217;-45
2024/01/28 08:17:08;;;;;;;2.90;1.80;;;5.70;99.20;;;;;;5044738;28;20706;-44
2024/01/28 08:19:38;;;;;;;3.50;1.92;;;5.70;99.20;;;;;;5047885;28;20284;-44
2024/01/28 08:22:06;;;;;;;3.03;1.75;;;5.70;99.10;;;;;;5046709;28;20212;-44
2024/01/28 08:24:38;;;;;;;2.75;1.52;;;5.70;99.20;;;;;;5044242;28;20248;-44
2024/01/28 08:27:07;;;;;;;2.78;1.85;;;5.70;99.10;;;;;;5030294;28;20209;-46
2024/01/28 08:29:37;;;;;;;2.97;1.80;;;5.70;99.80;;;;;;5045008;28;20464;-46
2024/01/28 08:32:06;;;;;;;4.07;1.90;;;5.70;99.20;;;;;;5044426;28;20632;-46
2024/01/28 08:34:34;;;;;;;3.47;2.03;;;5.60;99.20;;;;;;5046111;28;20293;-51
2024/01/28 08:37:03;;;;;;;3.65;1.50;;;5.70;99.30;;;;;;5046729;28;20235;-46
2024/01/28 08:39:31;;;;;;;2.45;1.45;;;5.70;99.30;;;;;;5047944;28;20217;-47
2024/01/28 08:42:00;;;;;;;2.70;1.85;;;5.60;99.20;;;;;;5044915;28;20286;-46
2024/01/28 08:44:28;;;;;;;2.90;1.75;;;5.60;99.10;;;;;;5047339;28;20694;-45
2024/01/28 08:46:58;;;;;;;4.35;1.90;;;5.60;99.00;;;;;;5044334;28;20189;-47
2024/01/28 08:49:26;;;;;;;7.55;1.98;;;5.60;99.20;;;;;;5047680;28;20217;-46
2024/01/28 08:51:54;;;;;;;2.85;1.92;;;5.60;99.10;;;;;;5047495;28;20296;-45
2024/01/28 08:54:24;;;;;;;2.92;1.70;;;5.60;99.70;;;;;;5053086;28;20217;-46
2024/01/28 08:56:52;;;;;;;4.45;2.03;;;5.60;99.20;;;;;;5047492;28;20203;-46
2024/01/28 08:59:20;;;;;;;2.47;1.80;;;5.70;99.20;;;;;;5043311;28;20219;-46
2024/01/28 09:01:49;;;;;;;2.75;1.80;;;5.70;99.20;;;;;;5043821;28;20217;-47
2024/01/28 09:04:19;;;;;;;3.67;1.90;;;5.70;99.40;;;;;;5050332;28;20219;-48
2024/01/28 09:06:48;;;;;;;3.83;2.38;;;5.70;99.60;;;;;;5050733;28;20188;-48
2024/01/28 09:09:16;;;;;;;4.85;2.20;;;5.60;98.60;;;;;;5047522;28;20307;-46
2024/01/28 09:11:45;;;;;;;2.90;1.92;;;5.60;98.90;;;;;;5051128;28;20223;-45
2024/01/28 09:14:17;;;;;;;3.20;1.95;;;5.70;99.20;;;;;;5050955;28;20262;-44
2024/01/28 09:16:46;;;;;;;2.15;1.88;;;5.70;99.20;;;;;;5047686;28;20212;-45
2024/01/28 09:19:14;;;;;;;5.47;2.10;;;5.70;99.90;;;;;;5049430;28;20318;-45
2024/01/28 09:21:44;;;;;;;2.90;1.90;;;5.70;99.50;;;;;;5049723;28;20191;-46
2024/01/28 09:24:12;;;;;;;2.30;1.80;;;5.70;99.60;;;;;;5048972;28;20216;-45
2024/01/28 09:26:40;;;;;;;2.75;2.17;;;5.70;99.70;;;;;;5046317;28;20193;-45
2024/01/28 09:29:10;;;;;;;3.85;1.50;;;5.70;99.60;;;;;;5051196;28;20348;-45
2024/01/28 09:31:38;;;;;;;9.60;2.47;;;5.70;99.70;;;;;;5045598;28;20193;-45
2024/01/28 09:34:06;;;;;;;2.95;1.75;;;5.80;99.70;;;;;;5050955;28;20225;-45
2024/01/28 09:36:34;;;;;;;2.75;1.42;;;5.80;99.70;;;;;;5050877;28;20674;-45
2024/01/28 09:39:04;;;;;;;2.83;1.83;;;5.80;99.80;;;;;;5031279;28;20228;-45
2024/01/28 09:41:40;;;;;;;5.22;2.28;;;5.80;99.90;;;;;;5050652;28;20193;-45
2024/01/28 09:44:08;;;;;;;4.95;2.03;;;5.70;99.90;;;;;;5048757;28;20216;-46
2024/01/28 09:46:38;;;;;;;3.20;1.73;;;5.80;99.90;;;;;;5045398;28;20193;-45
2024/01/28 09:49:11;;;;;;;3.53;2.47;;;5.80;99.90;;;;;;5050173;28;20216;-45
2024/01/28 09:51:49;;;;;;;2.58;1.50;;;5.80;99.90;;;;;;5046149;28;20243;-45
2024/01/28 09:54:27;;;;;;;2.25;1.38;;;5.80;99.90;;;;;;5044410;28;20690;-45
2024/01/28 09:56:56;;;;;;;3.00;1.73;;;5.80;99.90;;;;;;5049989;28;20724;-46
2024/01/28 09:59:24;;;;;;;5.80;1.55;;;5.80;99.90;;;;;;5049881;28;20219;-46
2024/01/28 10:01:53;;;;;;;3.22;2.22;;;5.80;99.90;;;;;;5048115;28;20647;-47
2024/01/28 10:04:21;;;;;;;4.85;1.80;;;5.80;99.90;;;;;;5050148;28;20216;-48
2024/01/28 10:06:53;;;;;;;5.85;2.00;;;5.80;99.90;;;;;;5048786;28;20196;-46
2024/01/28 10:09:21;;;;;;;4.15;1.90;;;5.80;99.90;;;;;;5050286;28;20223;-46
2024/01/28 10:11:52;;;;;;;3.05;1.70;;;5.80;99.90;;;;;;5050876;28;20664;-46
2024/01/28 10:14:20;;;;;;;3.80;1.88;;;5.80;99.90;;;;;;5048842;28;20590;-46
2024/01/28 10:16:49;;;;;;;2.85;1.50;;;5.80;99.90;;;;;;5046885;28;20201;-47
2024/01/28 10:19:17;;;;;;;3.55;1.80;;;5.80;99.90;;;;;;5050467;28;20212;-47
2024/01/28 10:21:47;;;;;;;3.55;2.22;;;5.80;99.90;;;;;;5050457;28;20708;-45
2024/01/28 10:24:16;;;;;;;3.53;1.63;;;5.80;99.90;;;;;;5046918;28;20252;-48
2024/01/28 10:26:45;;;;;;;3.25;1.88;;;5.80;99.90;;;;;;5049890;28;20193;-47
2024/01/28 10:29:15;;;;;;;3.67;2.17;;;5.80;99.90;;;;;;5049908;28;20224;-46
2024/01/28 10:31:47;;;;;;;3.08;1.70;;;5.80;99.90;;;;;;5045714;28;20688;-48
2024/01/28 10:34:15;;;;;;;2.40;1.83;;;5.80;99.90;;;;;;5049237;28;20220;-47
2024/01/28 10:36:48;;;;;;;3.47;3.03;;;5.80;99.90;;;;;;5049097;28;20200;-46
2024/01/28 10:39:20;;;;;;;2.28;1.70;;;5.80;99.90;;;;;;5048653;28;20205;-48
2024/01/28 10:41:55;;;;;;;2.50;1.25;;;5.80;99.90;;;;;;5048298;28;20242;-47
2024/01/28 10:44:26;;;;;;;2.03;1.65;;;5.80;99.90;;;;;;5049172;28;20689;-46
2024/01/28 10:46:59;;;;;;;4.10;2.33;;;5.80;99.90;;;;;;5045480;28;20201;-45
2024/01/28 10:49:32;;;;;;;18.50;3.50;;;5.80;99.90;;;;;;5045081;28;20204;-44
2024/01/28 10:52:02;;;;;;;4.60;2.88;;;5.80;99.40;;;;;;5049638;28;20223;-47
2024/01/28 10:54:30;;;;;;;5.55;3.17;;;5.80;99.40;;;;;;5048638;28;20216;-51
2024/01/28 10:57:00;;;;;;;3.28;2.20;;;5.80;99.40;;;;;;5048485;28;20197;-46
2024/01/28 10:59:42;;;;;;;5.30;1.83;;;5.80;99.60;;;;;;5045510;28;20248;-49
2024/01/28 11:02:15;;;;;;;5.28;3.30;;;5.80;99.70;;;;;;5037891;28;20213;-46
2024/01/28 11:04:44;;;;;;;4.00;2.88;;;5.90;99.50;;;;;;5043695;28;20228;-48
2024/01/28 11:07:16;;;;;;;6.20;3.72;;;5.80;99.40;;;;;;5030418;28;20188;-48
2024/01/28 11:09:44;;;;;;;4.22;2.40;;;5.80;99.60;;;;;;5046334;28;20225;-48
2024/01/28 11:12:15;;;;;;;5.45;2.70;;;5.80;99.70;;;;;;5049183;28;20221;-48
2024/01/28 11:14:48;;;;;;;4.15;2.65;;;5.80;99.80;;;;;;5046747;28;20303;-48
2024/01/28 11:17:16;;;;;;;3.35;2.50;;;5.80;99.80;;;;;;5044935;28;20280;-47
2024/01/28 11:19:50;;;;;;;7.18;2.67;;;5.80;99.90;;;;;;5047215;28;20236;-47
2024/01/28 11:22:19;;;;;;;4.10;2.72;;;5.80;99.90;;;;;;5043434;28;20216;-46
2024/01/28 11:24:53;;;;;;;4.50;2.70;;;5.90;99.90;;;;;;5045702;28;20248;-46
2024/01/28 11:27:22;;;;;;;2.75;2.38;;;5.90;99.90;;;;;;5029647;28;20777;-46
2024/01/28 11:29:57;;;;;;;5.60;2.17;;;5.90;99.90;;;;;;5045664;28;20274;-47
2024/01/28 11:32:33;;;;;;;3.33;2.85;;;6.00;99.90;;;;;;5039458;28;20588;-46
2024/01/28 11:35:02;;;;;;;4.03;2.65;;;6.00;99.90;;;;;;5045870;28;20701;-48
2024/01/28 11:37:30;;;;;;;4.30;2.10;;;6.10;99.90;;;;;;5047470;28;20224;-48
2024/01/28 11:40:05;;;;;;;4.85;3.15;;;6.10;99.90;;;;;;5044655;28;20821;-45
2024/01/28 11:42:34;;;;;;;3.00;2.25;;;6.10;99.90;;;;;;5047067;28;20248;-48
2024/01/28 11:45:16;;;;;;;4.10;2.53;;;6.10;99.90;;;;;;5046800;28;20193;-47
2024/01/28 11:47:48;;;;;;;3.95;2.50;;;6.10;99.90;;;;;;5044047;28;20242;-45
2024/01/28 11:50:18;;;;;;;4.28;2.75;;;6.20;99.90;;;;;;5043372;28;20245;-45
2024/01/28 11:52:47;;;;;;;5.18;2.60;;;6.20;99.80;;;;;;5046381;28;20663;-46
2024/01/28 11:55:18;;;;;;;4.60;2.65;;;6.30;99.80;;;;;;5047354;28;20192;-47
2024/01/28 11:57:48;;;;;;;5.75;2.00;;;6.30;99.80;;;;;;5047953;28;20200;-47
2024/01/28 12:00:18;;;;;;;4.30;2.83;;;6.20;99.80;;;;;;5044349;28;20737;-46
2024/01/28 12:02:46;;;;;;;2.70;2.17;;;6.20;99.80;;;;;;5046059;28;20300;-47
2024/01/28 12:05:18;;;;;;;5.63;2.40;;;6.20;99.90;;;;;;5047647;28;20223;-48
2024/01/28 12:07:49;;;;;;;3.78;2.20;;;6.20;99.90;;;;;;5043457;28;20212;-49
2024/01/28 12:10:17;;;;;;;5.32;2.00;;;6.20;99.90;;;;;;5048835;28;20209;-45
2024/01/28 12:12:46;;;;;;;4.65;2.40;;;6.20;99.90;;;;;;5045805;28;20278;-47
2024/01/28 12:15:17;;;;;;;4.75;2.55;;;6.20;99.90;;;;;;5041750;28;20193;-48
2024/01/28 12:17:48;;;;;;;4.22;2.22;;;6.20;99.90;;;;;;5041648;28;20200;-49
2024/01/28 12:20:26;;;;;;;3.47;2.40;;;6.20;99.90;;;;;;5046736;28;20185;-46
2024/01/28 12:23:19;;;;;;;5.10;3.05;;;6.20;99.90;;;;;;5039885;28;20306;-46
2024/01/28 12:25:52;;;;;;;4.47;2.78;;;6.30;99.90;;;;;;5044473;28;20185;-46
2024/01/28 12:28:31;;;;;;;5.68;2.60;;;6.40;99.80;;;;;;5044128;28;20274;-47
2024/01/28 12:31:04;;;;;;;4.25;2.53;;;6.40;99.80;;;;;;5042362;28;20413;-47
2024/01/28 12:33:39;;;;;;;6.47;3.70;;;6.40;99.70;;;;;;5045194;28;20220;-45
2024/01/28 12:36:15;;;;;;;4.55;2.78;;;6.40;99.70;;;;;;5046023;28;20193;-47
2024/01/28 12:39:06;;;;;;;7.70;2.35;;;6.40;99.70;;;;;;5049250;28;20220;-45
2024/01/28 12:41:48;;;;;;;5.40;2.35;;;6.40;99.90;;;;;;5048465;28;20708;-46
2024/01/28 12:44:27;;;;;;;3.88;2.00;;;6.50;99.80;;;;;;5051106;28;20208;-44
2024/01/28 12:47:18;;;;;;;3.53;1.90;;;6.40;99.80;;;;;;5050485;28;20275;-49
2024/01/28 12:49:49;;;;;;;4.20;2.20;;;6.50;99.80;;;;;;5046696;28;20228;-46
2024/01/28 12:52:17;;;;;;;4.20;2.50;;;6.40;99.90;;;;;;5052647;28;20212;-45
2024/01/28 12:54:46;;;;;;;4.72;2.47;;;6.40;99.90;;;;;;5039196;28;20224;-48
2024/01/28 12:57:17;;;;;;;3.90;2.30;;;6.40;99.90;;;;;;5050421;28;20588;-48
2024/01/28 12:59:48;;;;;;;4.38;2.60;;;6.40;99.90;;;;;;5051056;28;20216;-48
2024/01/28 13:02:17;;;;;;;4.60;2.67;;;6.40;99.90;;;;;;5047259;28;20224;-47
2024/01/28 13:04:47;;;;;;;2.92;1.88;;;6.40;99.90;;;;;;5051119;28;20278;-47
2024/01/28 13:07:16;;;;;;;3.58;2.47;;;6.40;99.90;;;;;;5050877;28;20189;-48
2024/01/28 13:09:44;;;;;;;5.07;2.28;;;6.30;99.90;;;;;;5047511;28;20221;-49